sensor_id;sensor_type;location;lat;lon;timestamp;P1;durP1;ratioP1;P2;durP2;ratioP2
14939;SDS011;11825;51.898;8.202;2022-08-19T00:04:57;8.97;;;6.93;;
14939;SDS011;11825;51.898;8.202;2022-08-19T00:09:59;8.43;;;6.40;;
14939;SDS011;11825;51.898;8.202;2022-08-19T00:15:22;7.60;;;6.80;;
14939;SDS011;11825;51.898;8.202;2022-08-19T00:20:26;7.43;;;6.70;;
14939;SDS011;11825;51.898;8.202;2022-08-19T00:25:28;8.40;;;6.63;;
14939;SDS011;11825;51.898;8.202;2022-08-19T00:30:31;7.20;;;6.60;;
14939;SDS011;11825;51.898;8.202;2022-08-19T00:35:32;8.63;;;6.67;;
14939;SDS011;11825;51.898;8.202;2022-08-19T00:40:50;8.17;;;7.37;;
14939;SDS011;11825;51.898;8.202;2022-08-19T00:45:57;7.67;;;6.73;;
14939;SDS011;11825;51.898;8.202;2022-08-19T00:50:59;7.50;;;6.80;;
14939;SDS011;11825;51.898;8.202;2022-08-19T00:56:02;10.40;;;7.57;;
14939;SDS011;11825;51.898;8.202;2022-08-19T01:01:07;7.53;;;6.93;;
14939;SDS011;11825;51.898;8.202;2022-08-19T01:06:12;7.37;;;6.67;;
14939;SDS011;11825;51.898;8.202;2022-08-19T01:11:20;10.50;;;8.27;;
14939;SDS011;11825;51.898;8.202;2022-08-19T01:16:22;7.97;;;7.10;;
14939;SDS011;11825;51.898;8.202;2022-08-19T01:26:28;8.80;;;7.90;;
14939;SDS011;11825;51.898;8.202;2022-08-19T01:31:31;8.50;;;7.63;;
14939;SDS011;11825;51.898;8.202;2022-08-19T01:36:38;7.83;;;7.17;;
14939;SDS011;11825;51.898;8.202;2022-08-19T01:41:46;9.53;;;7.77;;
14939;SDS011;11825;51.898;8.202;2022-08-19T01:46:49;8.97;;;8.07;;
14939;SDS011;11825;51.898;8.202;2022-08-19T01:51:52;8.57;;;7.77;;
14939;SDS011;11825;51.898;8.202;2022-08-19T01:56:56;9.73;;;7.43;;
14939;SDS011;11825;51.898;8.202;2022-08-19T02:02:04;9.40;;;8.50;;
14939;SDS011;11825;51.898;8.202;2022-08-19T02:07:09;11.57;;;8.37;;
14939;SDS011;11825;51.898;8.202;2022-08-19T02:12:11;10.97;;;9.97;;
14939;SDS011;11825;51.898;8.202;2022-08-19T02:17:13;11.70;;;10.60;;
14939;SDS011;11825;51.898;8.202;2022-08-19T02:22:15;11.17;;;10.27;;
14939;SDS011;11825;51.898;8.202;2022-08-19T02:27:17;13.07;;;11.70;;
14939;SDS011;11825;51.898;8.202;2022-08-19T02:32:18;11.30;;;10.13;;
14939;SDS011;11825;51.898;8.202;2022-08-19T02:37:21;9.87;;;9.03;;
14939;SDS011;11825;51.898;8.202;2022-08-19T02:42:41;10.67;;;9.70;;
14939;SDS011;11825;51.898;8.202;2022-08-19T02:47:52;13.87;;;11.30;;
14939;SDS011;11825;51.898;8.202;2022-08-19T02:53:08;11.30;;;10.17;;
14939;SDS011;11825;51.898;8.202;2022-08-19T02:58:17;12.23;;;11.03;;
14939;SDS011;11825;51.898;8.202;2022-08-19T03:03:30;11.23;;;10.23;;
14939;SDS011;11825;51.898;8.202;2022-08-19T03:08:40;12.20;;;11.00;;
14939;SDS011;11825;51.898;8.202;2022-08-19T03:13:55;12.23;;;11.10;;
14939;SDS011;11825;51.898;8.202;2022-08-19T03:19:13;12.40;;;10.53;;
14939;SDS011;11825;51.898;8.202;2022-08-19T03:24:22;12.50;;;11.40;;
14939;SDS011;11825;51.898;8.202;2022-08-19T03:29:33;12.77;;;11.50;;
14939;SDS011;11825;51.898;8.202;2022-08-19T03:34:52;11.60;;;10.23;;
14939;SDS011;11825;51.898;8.202;2022-08-19T03:39:59;12.67;;;11.37;;
14939;SDS011;11825;51.898;8.202;2022-08-19T03:45:02;12.97;;;11.33;;
14939;SDS011;11825;51.898;8.202;2022-08-19T03:50:25;12.17;;;10.97;;
14939;SDS011;11825;51.898;8.202;2022-08-19T03:55:32;15.17;;;11.33;;
14939;SDS011;11825;51.898;8.202;2022-08-19T04:00:34;16.97;;;12.20;;
14939;SDS011;11825;51.898;8.202;2022-08-19T04:05:48;13.80;;;11.87;;
14939;SDS011;11825;51.898;8.202;2022-08-19T04:10:52;15.50;;;13.63;;
14939;SDS011;11825;51.898;8.202;2022-08-19T04:15:54;13.20;;;11.90;;
14939;SDS011;11825;51.898;8.202;2022-08-19T04:21:14;13.23;;;11.87;;
14939;SDS011;11825;51.898;8.202;2022-08-19T04:26:24;13.90;;;12.47;;
14939;SDS011;11825;51.898;8.202;2022-08-19T04:31:28;13.90;;;12.50;;
14939;SDS011;11825;51.898;8.202;2022-08-19T04:36:33;13.87;;;11.80;;
14939;SDS011;11825;51.898;8.202;2022-08-19T04:41:40;14.00;;;12.80;;
14939;SDS011;11825;51.898;8.202;2022-08-19T04:47:01;16.63;;;13.47;;
14939;SDS011;11825;51.898;8.202;2022-08-19T04:52:11;15.47;;;13.83;;
14939;SDS011;11825;51.898;8.202;2022-08-19T04:57:13;13.40;;;12.20;;
14939;SDS011;11825;51.898;8.202;2022-08-19T05:02:15;15.40;;;14.03;;
14939;SDS011;11825;51.898;8.202;2022-08-19T05:07:19;15.77;;;14.20;;
14939;SDS011;11825;51.898;8.202;2022-08-19T05:12:21;14.57;;;13.27;;
14939;SDS011;11825;51.898;8.202;2022-08-19T05:17:29;16.63;;;14.87;;
14939;SDS011;11825;51.898;8.202;2022-08-19T05:22:38;16.93;;;15.23;;
14939;SDS011;11825;51.898;8.202;2022-08-19T05:27:41;16.83;;;15.23;;
14939;SDS011;11825;51.898;8.202;2022-08-19T05:32:43;16.87;;;15.10;;
14939;SDS011;11825;51.898;8.202;2022-08-19T05:37:45;15.03;;;13.43;;
14939;SDS011;11825;51.898;8.202;2022-08-19T05:48:16;16.97;;;15.17;;
14939;SDS011;11825;51.898;8.202;2022-08-19T05:53:21;22.57;;;20.47;;
14939;SDS011;11825;51.898;8.202;2022-08-19T05:58:23;20.37;;;18.20;;
14939;SDS011;11825;51.898;8.202;2022-08-19T06:03:28;23.67;;;18.47;;
14939;SDS011;11825;51.898;8.202;2022-08-19T06:08:30;21.83;;;17.93;;
14939;SDS011;11825;51.898;8.202;2022-08-19T06:13:35;24.77;;;22.13;;
14939;SDS011;11825;51.898;8.202;2022-08-19T06:18:37;19.70;;;17.30;;
14939;SDS011;11825;51.898;8.202;2022-08-19T06:23:38;18.80;;;16.83;;
14939;SDS011;11825;51.898;8.202;2022-08-19T06:28:40;20.70;;;18.53;;
14939;SDS011;11825;51.898;8.202;2022-08-19T06:33:46;17.60;;;15.80;;
14939;SDS011;11825;51.898;8.202;2022-08-19T06:38:50;18.23;;;15.60;;
14939;SDS011;11825;51.898;8.202;2022-08-19T06:43:52;18.53;;;16.27;;
14939;SDS011;11825;51.898;8.202;2022-08-19T06:48:56;17.53;;;15.90;;
14939;SDS011;11825;51.898;8.202;2022-08-19T06:53:58;17.07;;;15.50;;
14939;SDS011;11825;51.898;8.202;2022-08-19T06:59:05;16.30;;;14.80;;
14939;SDS011;11825;51.898;8.202;2022-08-19T07:04:09;17.13;;;15.37;;
14939;SDS011;11825;51.898;8.202;2022-08-19T07:09:13;16.23;;;14.40;;
14939;SDS011;11825;51.898;8.202;2022-08-19T07:14:19;18.03;;;15.60;;
14939;SDS011;11825;51.898;8.202;2022-08-19T07:19:26;15.20;;;12.47;;
14939;SDS011;11825;51.898;8.202;2022-08-19T07:24:28;14.70;;;12.90;;
14939;SDS011;11825;51.898;8.202;2022-08-19T07:29:34;13.90;;;11.47;;
14939;SDS011;11825;51.898;8.202;2022-08-19T07:34:38;12.53;;;11.37;;
14939;SDS011;11825;51.898;8.202;2022-08-19T07:39:40;18.70;;;12.73;;
14939;SDS011;11825;51.898;8.202;2022-08-19T07:44:42;13.10;;;11.87;;
14939;SDS011;11825;51.898;8.202;2022-08-19T07:49:51;16.00;;;11.73;;
14939;SDS011;11825;51.898;8.202;2022-08-19T07:54:52;12.63;;;11.37;;
14939;SDS011;11825;51.898;8.202;2022-08-19T07:59:54;12.73;;;10.23;;
14939;SDS011;11825;51.898;8.202;2022-08-19T08:04:57;13.43;;;8.67;;
14939;SDS011;11825;51.898;8.202;2022-08-19T08:10:17;9.67;;;7.60;;
14939;SDS011;11825;51.898;8.202;2022-08-19T08:15:21;6.27;;;5.73;;
14939;SDS011;11825;51.898;8.202;2022-08-19T08:20:25;7.43;;;6.10;;
14939;SDS011;11825;51.898;8.202;2022-08-19T08:25:27;7.57;;;6.40;;
14939;SDS011;11825;51.898;8.202;2022-08-19T08:30:32;7.10;;;6.50;;
14939;SDS011;11825;51.898;8.202;2022-08-19T08:35:37;7.23;;;6.03;;
14939;SDS011;11825;51.898;8.202;2022-08-19T08:40:53;10.90;;;8.57;;
14939;SDS011;11825;51.898;8.202;2022-08-19T08:51:37;8.23;;;6.73;;
14939;SDS011;11825;51.898;8.202;2022-08-19T08:56:42;8.30;;;7.43;;
14939;SDS011;11825;51.898;8.202;2022-08-19T09:01:45;9.40;;;6.60;;
14939;SDS011;11825;51.898;8.202;2022-08-19T09:06:50;7.03;;;6.33;;
14939;SDS011;11825;51.898;8.202;2022-08-19T09:12:10;7.27;;;6.53;;
14939;SDS011;11825;51.898;8.202;2022-08-19T09:17:29;6.50;;;5.60;;
14939;SDS011;11825;51.898;8.202;2022-08-19T09:22:32;5.77;;;5.17;;
14939;SDS011;11825;51.898;8.202;2022-08-19T09:27:35;7.63;;;5.93;;
14939;SDS011;11825;51.898;8.202;2022-08-19T09:32:43;5.97;;;5.03;;
14939;SDS011;11825;51.898;8.202;2022-08-19T09:37:46;7.83;;;4.67;;
14939;SDS011;11825;51.898;8.202;2022-08-19T09:42:48;6.30;;;5.27;;
14939;SDS011;11825;51.898;8.202;2022-08-19T09:47:52;4.90;;;4.50;;
14939;SDS011;11825;51.898;8.202;2022-08-19T09:52:55;6.33;;;5.73;;
14939;SDS011;11825;51.898;8.202;2022-08-19T09:57:59;15.43;;;7.57;;
14939;SDS011;11825;51.898;8.202;2022-08-19T10:03:01;7.50;;;4.17;;
14939;SDS011;11825;51.898;8.202;2022-08-19T10:08:03;6.00;;;5.50;;
14939;SDS011;11825;51.898;8.202;2022-08-19T10:13:15;5.20;;;4.80;;
14939;SDS011;11825;51.898;8.202;2022-08-19T10:18:19;9.80;;;4.77;;
14939;SDS011;11825;51.898;8.202;2022-08-19T10:23:22;6.27;;;5.70;;
14939;SDS011;11825;51.898;8.202;2022-08-19T10:28:23;7.00;;;6.33;;
14939;SDS011;11825;51.898;8.202;2022-08-19T10:33:25;6.13;;;5.53;;
14939;SDS011;11825;51.898;8.202;2022-08-19T10:38:49;7.17;;;6.57;;
14939;SDS011;11825;51.898;8.202;2022-08-19T10:43:58;5.43;;;4.93;;
14939;SDS011;11825;51.898;8.202;2022-08-19T10:49:04;5.80;;;5.33;;
14939;SDS011;11825;51.898;8.202;2022-08-19T10:54:06;6.50;;;6.00;;
14939;SDS011;11825;51.898;8.202;2022-08-19T10:59:13;5.53;;;4.70;;
14939;SDS011;11825;51.898;8.202;2022-08-19T11:04:15;5.10;;;4.60;;
14939;SDS011;11825;51.898;8.202;2022-08-19T11:09:20;4.70;;;4.30;;
14939;SDS011;11825;51.898;8.202;2022-08-19T11:14:33;4.40;;;3.90;;
14939;SDS011;11825;51.898;8.202;2022-08-19T11:19:35;4.63;;;4.23;;
14939;SDS011;11825;51.898;8.202;2022-08-19T11:24:37;3.00;;;2.80;;
14939;SDS011;11825;51.898;8.202;2022-08-19T11:29:39;3.60;;;3.30;;
14939;SDS011;11825;51.898;8.202;2022-08-19T11:34:41;3.77;;;3.43;;
14939;SDS011;11825;51.898;8.202;2022-08-19T11:39:43;3.45;;;3.15;;
14939;SDS011;11825;51.898;8.202;2022-08-19T11:44:51;4.30;;;3.23;;
14939;SDS011;11825;51.898;8.202;2022-08-19T11:49:53;3.50;;;3.30;;
14939;SDS011;11825;51.898;8.202;2022-08-19T11:54:55;5.07;;;4.07;;
14939;SDS011;11825;51.898;8.202;2022-08-19T11:59:57;3.72;;;3.42;;
14939;SDS011;11825;51.898;8.202;2022-08-19T12:04:59;10.33;;;4.20;;
14939;SDS011;11825;51.898;8.202;2022-08-19T12:10:03;3.63;;;3.43;;
14939;SDS011;11825;51.898;8.202;2022-08-19T12:15:06;5.33;;;4.90;;
14939;SDS011;11825;51.898;8.202;2022-08-19T12:20:09;4.40;;;4.00;;
14939;SDS011;11825;51.898;8.202;2022-08-19T12:25:11;4.00;;;3.70;;
14939;SDS011;11825;51.898;8.202;2022-08-19T12:30:13;4.13;;;3.73;;
14939;SDS011;11825;51.898;8.202;2022-08-19T12:35:15;4.13;;;3.73;;
14939;SDS011;11825;51.898;8.202;2022-08-19T12:40:17;3.57;;;3.37;;
14939;SDS011;11825;51.898;8.202;2022-08-19T12:45:20;3.70;;;3.40;;
14939;SDS011;11825;51.898;8.202;2022-08-19T12:50:22;3.72;;;3.42;;
14939;SDS011;11825;51.898;8.202;2022-08-19T12:55:24;3.63;;;3.33;;
14939;SDS011;11825;51.898;8.202;2022-08-19T13:00:26;4.27;;;3.97;;
14939;SDS011;11825;51.898;8.202;2022-08-19T13:05:30;4.33;;;4.03;;
14939;SDS011;11825;51.898;8.202;2022-08-19T13:10:34;3.47;;;3.17;;
14939;SDS011;11825;51.898;8.202;2022-08-19T13:15:38;4.03;;;3.73;;
14939;SDS011;11825;51.898;8.202;2022-08-19T13:20:41;4.30;;;4.00;;
14939;SDS011;11825;51.898;8.202;2022-08-19T13:25:59;3.42;;;3.22;;
14939;SDS011;11825;51.898;8.202;2022-08-19T13:31:02;3.70;;;3.40;;
14939;SDS011;11825;51.898;8.202;2022-08-19T13:36:23;4.60;;;4.20;;
14939;SDS011;11825;51.898;8.202;2022-08-19T13:41:25;3.70;;;3.50;;
14939;SDS011;11825;51.898;8.202;2022-08-19T13:46:28;4.43;;;4.10;;
14939;SDS011;11825;51.898;8.202;2022-08-19T13:51:30;3.97;;;3.67;;
14939;SDS011;11825;51.898;8.202;2022-08-19T13:56:32;4.53;;;4.13;;
14939;SDS011;11825;51.898;8.202;2022-08-19T14:01:35;3.70;;;3.40;;
14939;SDS011;11825;51.898;8.202;2022-08-19T14:06:37;5.03;;;4.63;;
14939;SDS011;11825;51.898;8.202;2022-08-19T14:11:39;3.70;;;3.40;;
14939;SDS011;11825;51.898;8.202;2022-08-19T14:16:41;4.57;;;4.17;;
14939;SDS011;11825;51.898;8.202;2022-08-19T14:21:43;3.83;;;3.37;;
14939;SDS011;11825;51.898;8.202;2022-08-19T14:26:45;3.77;;;3.57;;
14939;SDS011;11825;51.898;8.202;2022-08-19T14:31:47;5.07;;;4.60;;
14939;SDS011;11825;51.898;8.202;2022-08-19T14:36:49;4.17;;;3.83;;
14939;SDS011;11825;51.898;8.202;2022-08-19T14:41:52;6.33;;;5.27;;
14939;SDS011;11825;51.898;8.202;2022-08-19T14:46:54;7.03;;;6.43;;
14939;SDS011;11825;51.898;8.202;2022-08-19T14:51:55;6.27;;;5.77;;
14939;SDS011;11825;51.898;8.202;2022-08-19T14:56:57;6.03;;;5.63;;
14939;SDS011;11825;51.898;8.202;2022-08-19T15:01:59;20.20;;;18.10;;
14939;SDS011;11825;51.898;8.202;2022-08-19T15:07:21;4.93;;;4.60;;
14939;SDS011;11825;51.898;8.202;2022-08-19T15:12:28;4.77;;;4.37;;
14939;SDS011;11825;51.898;8.202;2022-08-19T15:17:30;5.15;;;4.75;;
14939;SDS011;11825;51.898;8.202;2022-08-19T15:22:46;6.47;;;5.97;;
14939;SDS011;11825;51.898;8.202;2022-08-19T15:27:48;5.15;;;4.75;;
14939;SDS011;11825;51.898;8.202;2022-08-19T15:32:53;6.35;;;5.75;;
14939;SDS011;11825;51.898;8.202;2022-08-19T15:37:57;6.60;;;5.03;;
14939;SDS011;11825;51.898;8.202;2022-08-19T15:42:59;4.28;;;3.97;;
14939;SDS011;11825;51.898;8.202;2022-08-19T15:48:01;5.55;;;4.88;;
14939;SDS011;11825;51.898;8.202;2022-08-19T15:53:06;4.93;;;4.33;;
14939;SDS011;11825;51.898;8.202;2022-08-19T15:58:10;4.50;;;4.10;;
14939;SDS011;11825;51.898;8.202;2022-08-19T16:03:32;4.77;;;4.37;;
14939;SDS011;11825;51.898;8.202;2022-08-19T16:08:53;5.10;;;4.77;;
14939;SDS011;11825;51.898;8.202;2022-08-19T16:14:02;4.27;;;3.97;;
14939;SDS011;11825;51.898;8.202;2022-08-19T16:19:05;5.43;;;4.97;;
14939;SDS011;11825;51.898;8.202;2022-08-19T16:24:13;5.83;;;4.33;;
14939;SDS011;11825;51.898;8.202;2022-08-19T16:29:17;5.43;;;4.93;;
14939;SDS011;11825;51.898;8.202;2022-08-19T16:34:35;4.27;;;3.97;;
14939;SDS011;11825;51.898;8.202;2022-08-19T16:39:38;5.70;;;5.27;;
14939;SDS011;11825;51.898;8.202;2022-08-19T16:44:44;5.80;;;5.30;;
14939;SDS011;11825;51.898;8.202;2022-08-19T16:49:46;6.23;;;5.73;;
14939;SDS011;11825;51.898;8.202;2022-08-19T16:54:55;5.57;;;5.17;;
14939;SDS011;11825;51.898;8.202;2022-08-19T16:59:57;6.33;;;5.83;;
14939;SDS011;11825;51.898;8.202;2022-08-19T17:04:58;6.23;;;5.73;;
14939;SDS011;11825;51.898;8.202;2022-08-19T17:10:01;5.60;;;5.20;;
14939;SDS011;11825;51.898;8.202;2022-08-19T17:15:04;6.23;;;5.63;;
14939;SDS011;11825;51.898;8.202;2022-08-19T17:20:08;6.00;;;5.50;;
14939;SDS011;11825;51.898;8.202;2022-08-19T17:25:10;6.03;;;5.53;;
14939;SDS011;11825;51.898;8.202;2022-08-19T17:30:12;6.40;;;5.13;;
14939;SDS011;11825;51.898;8.202;2022-08-19T17:35:14;7.80;;;6.00;;
14939;SDS011;11825;51.898;8.202;2022-08-19T17:40:24;5.53;;;5.13;;
14939;SDS011;11825;51.898;8.202;2022-08-19T17:45:30;9.30;;;6.00;;
14939;SDS011;11825;51.898;8.202;2022-08-19T17:50:32;6.43;;;5.90;;
14939;SDS011;11825;51.898;8.202;2022-08-19T17:55:35;7.13;;;6.53;;
14939;SDS011;11825;51.898;8.202;2022-08-19T18:00:37;7.63;;;7.03;;
14939;SDS011;11825;51.898;8.202;2022-08-19T18:05:53;7.97;;;5.40;;
14939;SDS011;11825;51.898;8.202;2022-08-19T18:10:56;9.47;;;8.57;;
14939;SDS011;11825;51.898;8.202;2022-08-19T18:15:59;6.07;;;5.57;;
14939;SDS011;11825;51.898;8.202;2022-08-19T18:21:01;6.67;;;6.13;;
14939;SDS011;11825;51.898;8.202;2022-08-19T18:26:03;11.27;;;10.27;;
14939;SDS011;11825;51.898;8.202;2022-08-19T18:31:06;7.67;;;6.97;;
14939;SDS011;11825;51.898;8.202;2022-08-19T18:36:08;8.70;;;7.90;;
14939;SDS011;11825;51.898;8.202;2022-08-19T18:41:09;6.37;;;5.47;;
14939;SDS011;11825;51.898;8.202;2022-08-19T18:46:31;6.07;;;5.57;;
14939;SDS011;11825;51.898;8.202;2022-08-19T18:51:51;6.13;;;5.10;;
14939;SDS011;11825;51.898;8.202;2022-08-19T18:56:54;6.93;;;6.33;;
14939;SDS011;11825;51.898;8.202;2022-08-19T19:01:56;6.80;;;6.20;;
14939;SDS011;11825;51.898;8.202;2022-08-19T19:06:59;5.80;;;5.30;;
14939;SDS011;11825;51.898;8.202;2022-08-19T19:12:02;6.07;;;5.60;;
14939;SDS011;11825;51.898;8.202;2022-08-19T19:17:05;6.37;;;5.70;;
14939;SDS011;11825;51.898;8.202;2022-08-19T19:22:13;6.23;;;5.73;;
14939;SDS011;11825;51.898;8.202;2022-08-19T19:27:17;7.27;;;6.67;;
14939;SDS011;11825;51.898;8.202;2022-08-19T19:32:25;12.10;;;6.20;;
14939;SDS011;11825;51.898;8.202;2022-08-19T19:37:28;12.47;;;6.97;;
14939;SDS011;11825;51.898;8.202;2022-08-19T19:42:30;9.03;;;6.87;;
14939;SDS011;11825;51.898;8.202;2022-08-19T19:47:31;21.23;;;13.40;;
14939;SDS011;11825;51.898;8.202;2022-08-19T19:52:33;16.33;;;9.33;;
14939;SDS011;11825;51.898;8.202;2022-08-19T19:57:35;11.97;;;10.87;;
14939;SDS011;11825;51.898;8.202;2022-08-19T20:02:40;9.27;;;7.70;;
14939;SDS011;11825;51.898;8.202;2022-08-19T20:07:50;9.27;;;8.40;;
14939;SDS011;11825;51.898;8.202;2022-08-19T20:13:11;15.73;;;10.53;;
14939;SDS011;11825;51.898;8.202;2022-08-19T20:18:15;11.07;;;10.10;;
14939;SDS011;11825;51.898;8.202;2022-08-19T20:23:18;13.27;;;10.90;;
14939;SDS011;11825;51.898;8.202;2022-08-19T20:28:21;51.73;;;46.83;;
14939;SDS011;11825;51.898;8.202;2022-08-19T20:33:25;15.00;;;13.43;;
14939;SDS011;11825;51.898;8.202;2022-08-19T20:38:27;11.53;;;10.53;;
14939;SDS011;11825;51.898;8.202;2022-08-19T20:43:29;11.50;;;10.40;;
14939;SDS011;11825;51.898;8.202;2022-08-19T20:48:31;23.13;;;21.03;;
14939;SDS011;11825;51.898;8.202;2022-08-19T20:53:33;21.70;;;19.73;;
14939;SDS011;11825;51.898;8.202;2022-08-19T20:58:35;16.17;;;13.10;;
14939;SDS011;11825;51.898;8.202;2022-08-19T21:03:38;12.87;;;11.63;;
14939;SDS011;11825;51.898;8.202;2022-08-19T21:08:44;15.23;;;12.60;;
14939;SDS011;11825;51.898;8.202;2022-08-19T21:13:49;15.70;;;13.67;;
14939;SDS011;11825;51.898;8.202;2022-08-19T21:18:51;15.17;;;13.07;;
14939;SDS011;11825;51.898;8.202;2022-08-19T21:23:52;15.00;;;13.60;;
14939;SDS011;11825;51.898;8.202;2022-08-19T21:28:54;14.10;;;12.73;;
14939;SDS011;11825;51.898;8.202;2022-08-19T21:33:56;15.37;;;13.43;;
14939;SDS011;11825;51.898;8.202;2022-08-19T21:38:58;15.60;;;14.17;;
14939;SDS011;11825;51.898;8.202;2022-08-19T21:43:59;19.33;;;17.53;;
14939;SDS011;11825;51.898;8.202;2022-08-19T21:49:02;16.00;;;14.37;;
14939;SDS011;11825;51.898;8.202;2022-08-19T21:54:05;16.53;;;15.03;;
14939;SDS011;11825;51.898;8.202;2022-08-19T21:59:14;15.03;;;13.73;;
14939;SDS011;11825;51.898;8.202;2022-08-19T22:04:17;14.43;;;13.10;;
14939;SDS011;11825;51.898;8.202;2022-08-19T22:09:20;14.43;;;13.03;;
14939;SDS011;11825;51.898;8.202;2022-08-19T22:14:22;16.17;;;14.67;;
14939;SDS011;11825;51.898;8.202;2022-08-19T22:19:23;15.20;;;13.90;;
14939;SDS011;11825;51.898;8.202;2022-08-19T22:24:25;16.37;;;14.70;;
14939;SDS011;11825;51.898;8.202;2022-08-19T22:29:27;16.23;;;14.80;;
14939;SDS011;11825;51.898;8.202;2022-08-19T22:34:34;14.60;;;13.27;;
14939;SDS011;11825;51.898;8.202;2022-08-19T22:39:36;17.13;;;14.60;;
14939;SDS011;11825;51.898;8.202;2022-08-19T22:44:38;18.33;;;16.53;;
14939;SDS011;11825;51.898;8.202;2022-08-19T22:49:40;16.23;;;14.63;;
14939;SDS011;11825;51.898;8.202;2022-08-19T22:54:42;16.50;;;14.90;;
14939;SDS011;11825;51.898;8.202;2022-08-19T22:59:46;16.90;;;15.27;;
14939;SDS011;11825;51.898;8.202;2022-08-19T23:04:49;18.53;;;15.37;;
14939;SDS011;11825;51.898;8.202;2022-08-19T23:09:51;16.97;;;13.97;;
14939;SDS011;11825;51.898;8.202;2022-08-19T23:14:53;16.20;;;14.70;;
14939;SDS011;11825;51.898;8.202;2022-08-19T23:19:55;16.47;;;15.10;;
14939;SDS011;11825;51.898;8.202;2022-08-19T23:25:01;16.27;;;14.17;;
14939;SDS011;11825;51.898;8.202;2022-08-19T23:30:09;15.87;;;14.27;;
14939;SDS011;11825;51.898;8.202;2022-08-19T23:35:30;17.17;;;15.43;;
14939;SDS011;11825;51.898;8.202;2022-08-19T23:40:34;18.27;;;16.50;;
14939;SDS011;11825;51.898;8.202;2022-08-19T23:45:38;18.10;;;16.43;;
14939;SDS011;11825;51.898;8.202;2022-08-19T23:50:41;18.03;;;16.13;;
14939;SDS011;11825;51.898;8.202;2022-08-19T23:55:45;16.90;;;15.40;;
